Crandalls Lodge, Iowa
Current Conditions -  °F | °C
As of 10:13 PM on Friday 19 Dec 2014 (Local Time) from KMJQ Reporting Station
Overcast Overcast  
Wind Chill: 24°   Ceiling: 1000
Heat Index: 32°   Visibility: 7mi
Dew Point: 28°   Wind: 9mph
Humidity: 87%   Direction: 200°SSW
Pressure: 30.11"   Gusts: NA
Location:  43.4265°N, 95.1547°W
Report Text: KMJQ 200413Z AUTO 20008KT 7SM OVC010 00/M02 A3011 RMK AO2
Loading
Personal Weather Stations






























Interactive Weather Map New forecast layout! Learn more

10-Day Weather Forecast

Advertisements
Track Severe Weather on mobile